Friday, January 19, 2018, 10:37 AM EST
Back to Local

KCAK, Akron-canton Regional Airport

Location: Canton, OH, United States Lat: 40.917
Local Time: 10:37 AM EST (15:37 GMT) Lon: -81.45
Time Zone: US/Eastern Elev: 1227 ft

Show me the last for .
Show Decoded

2018-01-19 09:51 METAR KCAK 191451Z 22014G21KT 10SM SCT250 M05/M12 A3006 RMK AO2 SLP196 T10501117
                 56005 =
2018-01-19 08:51 METAR KCAK 191351Z 22012KT 10SM SCT250 M07/M12 A3006 RMK AO2 SLP197 T10671122 =
2018-01-19 07:51 METAR KCAK 191251Z 20012KT 10SM FEW250 M07/M13 A3006 RMK AO2 SLP197 T10721128 =
2018-01-19 06:51 METAR KCAK 191151Z 21011KT 10SM FEW250 M08/M13 A3007 RMK AO2 SLP202 4/003
                 T10781128 11050 21083 53006 =
2018-01-19 05:51 METAR KCAK 191051Z 22011KT 10SM CLR M07/M13 A3006 RMK AO2 SLP196 T10671128 =
2018-01-19 04:51 METAR KCAK 190951Z 22013KT 10SM CLR M07/M13 A3005 RMK AO2 SLP194 T10721128 =
2018-01-19 03:51 METAR KCAK 190851Z 22013KT 10SM CLR M07/M13 A3006 RMK AO2 SLP196 T10671128 50002
                 =
2018-01-19 02:51 METAR KCAK 190751Z 22014KT 10SM CLR M07/M13 A3006 RMK AO2 SLP197 T10671128 =
2018-01-19 01:51 METAR KCAK 190651Z 22013KT 10SM CLR M06/M12 A3006 RMK AO2 SLP196 T10611122 =
2018-01-19 00:51 METAR KCAK 190551Z 21014KT 10SM CLR M05/M12 A3005 RMK AO2 SLP193 4/003 T10501122
                 11044 21056 58010 =
2018-01-18 23:51 METAR KCAK 190451Z 22014KT 10SM CLR M05/M12 A3006 RMK AO2 SLP198 T10501117
                 410281139 =
2018-01-18 22:51 METAR KCAK 190351Z 22014KT 10SM CLR M04/M12 A3007 RMK AO2 SLP203 T10441117 =
2018-01-18 21:51 METAR KCAK 190251Z 22016KT 10SM CLR M04/M12 A3008 RMK AO2 SLP206 T10441117 58007
                 =
2018-01-18 20:51 METAR KCAK 190151Z 22015KT 10SM CLR M05/M12 A3009 RMK AO2 SLP212 T10501117 =
2018-01-18 19:51 METAR KCAK 190051Z 22015KT 10SM CLR M04/M12 A3010 RMK AO2 SLP216 T10441117 =
2018-01-18 18:51 METAR KCAK 182351Z 23017KT 10SM CLR M04/M12 A3010 RMK AO2 SLP214 4/003 T10441117
                 11028 21056 53000 =
2018-01-18 17:51 METAR KCAK 182251Z 23014KT 10SM CLR M04/M12 A3009 RMK AO2 SLP211 T10391117 =
2018-01-18 16:51 METAR KCAK 182151Z 22013KT 10SM CLR M04/M11 A3009 RMK AO2 SLP211 T10391111 =
2018-01-18 15:51 METAR KCAK 182051Z 24015KT 10SM CLR M03/M11 A3010 RMK AO2 SLP213 T10331111 56009
                 =
2018-01-18 14:51 METAR KCAK 181951Z 22014KT 10SM CLR M04/M11 A3010 RMK AO2 SLP214 T10391111 =
2018-01-18 13:51 METAR KCAK 181851Z 23013G21KT 10SM CLR M04/M12 A3010 RMK AO2 SLP217 T10441122 =
2018-01-18 12:51 METAR KCAK 181751Z 24015KT 10SM CLR M06/M13 A3013 RMK AO2 SLP224 4/003 933004
                 T10561128 11056 21128 58020 =
2018-01-18 11:51 METAR KCAK 181651Z 23016G24KT 10SM CLR M07/M13 A3017 RMK AO2 SLP239 T10721133 =
2018-01-18 10:51 METAR KCAK 181551Z 23014G21KT 10SM CLR M08/M14 A3018 RMK AO2 SLP243 T10831144 =

Support USWX by starting your Amazon purchase here.